Ana Sayfa
METAR-TAF:

METAR-TAF

Havaalanları :

Carlsbad, New Mexico, Amerika Birleşik Devletleri

Enlem: 32-20-15N, Boylam: 104-15-48W, yükseklik: 1004 m

Güncel hava durumu gözlemi

Rapor saat 22:53 UTC de 43 dakika önce yapıldı.
Rüzgar güneydan 10 kt ve 20 kt'a kadar ani rüzgarlar
Sıcaklık 39°C
Nem 19%
Basınç 1010 hPa
Görüş mesafesi: 16.1 km
11000 ft yükseklikte az bulutlu

METAR: KCNM 182253Z AUTO 18010G20KT 10SM FEW110 39/11 A2983 RMK AO2 SLP033 T03940111 $

Saat: 17:36 (23:36 UTC)

Tahmin

Rapor saat 23:02 UTC de 34 dakika önce yapıldı.
Ayın 18'si saat 23 UTC'den ayın 19'si saat 18 UTC'ye kadar geçerli Tahmin
Rüzgar güneydan 10 kt ve 20 kt'a kadar ani rüzgarlar
Görüş mesafesi: 10 km
12000 ft yükseklikte parçalı bulutlu
25000 ft yükseklikte parçalı bulutlu
Ayın 19'si saat 0300 UTC'den
Rüzgar güney/güneydoğudan 8 kt
Görüş mesafesi: 10 km
12000 ft yükseklikte az bulutlu

TAF: KCNM 182302Z 1823/1918 17010G20KT P6SM SCT120 SCT250 FM190300 16008KT P6SM FEW120

4.000'den fazla havaalanı için hava durumu gözlemleri ve tahminleri (METAR ve TAF raporları).

Kullanılabilir istasyonlar harita üzerinde sarı ve kırmızı noktalarla gösterilir.

İstasyonun adını görmek için fareyi noktanın üzerinde gezdirin.

Sonrasında hava gözlem ve tahminlerini görmek için tıklayın.

Haritayı değiştirmek için: yaklaştırmak için siyah artı işaretli yeşil düğmeye ve uzaklaştırmak için de eksi işaretli düğmeye hızla tıklayın; bitişik haritalar için yeşil okları kullanın.


METAR-TAF: